sensor_id;sensor_type;location;lat;lon;timestamp;P1;durP1;ratioP1;P2;durP2;ratioP2
21330;SDS011;10824;51.632;4.950;2023-07-13T00:02:58;2.10;;;0.55;;
21330;SDS011;10824;51.632;4.950;2023-07-13T00:05:26;1.42;;;0.60;;
21330;SDS011;10824;51.632;4.950;2023-07-13T00:07:53;4.30;;;1.02;;
21330;SDS011;10824;51.632;4.950;2023-07-13T00:10:21;2.22;;;0.70;;
21330;SDS011;10824;51.632;4.950;2023-07-13T00:12:48;3.38;;;0.90;;
21330;SDS011;10824;51.632;4.950;2023-07-13T00:15:20;2.65;;;0.70;;
21330;SDS011;10824;51.632;4.950;2023-07-13T00:17:52;5.45;;;0.90;;
21330;SDS011;10824;51.632;4.950;2023-07-13T00:20:21;1.10;;;0.60;;
21330;SDS011;10824;51.632;4.950;2023-07-13T00:22:51;2.50;;;0.85;;
21330;SDS011;10824;51.632;4.950;2023-07-13T00:25:20;1.52;;;0.95;;
21330;SDS011;10824;51.632;4.950;2023-07-13T00:27:50;2.88;;;0.85;;
21330;SDS011;10824;51.632;4.950;2023-07-13T00:30:18;3.97;;;0.80;;
21330;SDS011;10824;51.632;4.950;2023-07-13T00:32:45;3.55;;;0.88;;
21330;SDS011;10824;51.632;4.950;2023-07-13T00:35:13;9.38;;;1.40;;
21330;SDS011;10824;51.632;4.950;2023-07-13T00:37:41;2.28;;;0.60;;
21330;SDS011;10824;51.632;4.950;2023-07-13T00:40:10;2.50;;;0.70;;
21330;SDS011;10824;51.632;4.950;2023-07-13T00:42:43;2.00;;;1.30;;
21330;SDS011;10824;51.632;4.950;2023-07-13T00:47:40;2.67;;;0.93;;
21330;SDS011;10824;51.632;4.950;2023-07-13T00:50:09;3.53;;;1.05;;
21330;SDS011;10824;51.632;4.950;2023-07-13T00:52:39;2.38;;;0.70;;
21330;SDS011;10824;51.632;4.950;2023-07-13T00:55:09;6.88;;;0.75;;
21330;SDS011;10824;51.632;4.950;2023-07-13T00:57:39;3.38;;;0.77;;
21330;SDS011;10824;51.632;4.950;2023-07-13T01:00:08;4.35;;;1.10;;
21330;SDS011;10824;51.632;4.950;2023-07-13T01:02:39;1.95;;;0.75;;
21330;SDS011;10824;51.632;4.950;2023-07-13T01:05:11;6.15;;;0.80;;
21330;SDS011;10824;51.632;4.950;2023-07-13T01:07:40;3.50;;;0.98;;
21330;SDS011;10824;51.632;4.950;2023-07-13T01:10:11;3.75;;;1.25;;
21330;SDS011;10824;51.632;4.950;2023-07-13T01:12:39;10.10;;;3.25;;
21330;SDS011;10824;51.632;4.950;2023-07-13T01:18:15;5.47;;;1.13;;
21330;SDS011;10824;51.632;4.950;2023-07-13T01:23:35;7.68;;;1.10;;
21330;SDS011;10824;51.632;4.950;2023-07-13T01:26:02;4.35;;;1.10;;
21330;SDS011;10824;51.632;4.950;2023-07-13T01:28:29;2.92;;;0.90;;
21330;SDS011;10824;51.632;4.950;2023-07-13T01:30:58;5.35;;;0.90;;
21330;SDS011;10824;51.632;4.950;2023-07-13T01:33:26;5.25;;;2.00;;
21330;SDS011;10824;51.632;4.950;2023-07-13T01:35:55;3.78;;;1.10;;
21330;SDS011;10824;51.632;4.950;2023-07-13T01:38:24;18.27;;;3.13;;
21330;SDS011;10824;51.632;4.950;2023-07-13T01:40:52;1.80;;;0.75;;
21330;SDS011;10824;51.632;4.950;2023-07-13T01:43:19;2.53;;;0.90;;
21330;SDS011;10824;51.632;4.950;2023-07-13T01:45:47;2.95;;;1.27;;
21330;SDS011;10824;51.632;4.950;2023-07-13T01:48:15;4.03;;;1.85;;
21330;SDS011;10824;51.632;4.950;2023-07-13T01:50:42;4.50;;;1.17;;
21330;SDS011;10824;51.632;4.950;2023-07-13T01:53:09;4.13;;;1.10;;
21330;SDS011;10824;51.632;4.950;2023-07-13T01:55:38;2.60;;;1.10;;
21330;SDS011;10824;51.632;4.950;2023-07-13T01:58:05;3.70;;;1.00;;
21330;SDS011;10824;51.632;4.950;2023-07-13T02:00:33;7.10;;;1.52;;
21330;SDS011;10824;51.632;4.950;2023-07-13T02:03:01;4.60;;;1.10;;
21330;SDS011;10824;51.632;4.950;2023-07-13T02:05:31;2.40;;;0.98;;
21330;SDS011;10824;51.632;4.950;2023-07-13T02:07:58;2.72;;;1.05;;
21330;SDS011;10824;51.632;4.950;2023-07-13T02:10:25;3.22;;;0.95;;
21330;SDS011;10824;51.632;4.950;2023-07-13T02:12:52;5.55;;;1.02;;
21330;SDS011;10824;51.632;4.950;2023-07-13T02:15:19;4.13;;;1.10;;
21330;SDS011;10824;51.632;4.950;2023-07-13T02:17:47;2.65;;;1.10;;
21330;SDS011;10824;51.632;4.950;2023-07-13T02:20:14;8.75;;;2.63;;
21330;SDS011;10824;51.632;4.950;2023-07-13T02:22:41;7.18;;;1.30;;
21330;SDS011;10824;51.632;4.950;2023-07-13T02:25:08;4.40;;;1.20;;
21330;SDS011;10824;51.632;4.950;2023-07-13T02:27:35;5.13;;;1.42;;
21330;SDS011;10824;51.632;4.950;2023-07-13T02:30:03;2.97;;;1.20;;
21330;SDS011;10824;51.632;4.950;2023-07-13T02:32:30;4.90;;;1.50;;
21330;SDS011;10824;51.632;4.950;2023-07-13T02:34:57;5.88;;;1.10;;
21330;SDS011;10824;51.632;4.950;2023-07-13T02:37:24;4.97;;;1.73;;
21330;SDS011;10824;51.632;4.950;2023-07-13T02:39:51;6.28;;;1.30;;
21330;SDS011;10824;51.632;4.950;2023-07-13T02:42:19;5.07;;;2.00;;
21330;SDS011;10824;51.632;4.950;2023-07-13T02:44:46;6.78;;;2.22;;
21330;SDS011;10824;51.632;4.950;2023-07-13T02:47:13;5.05;;;1.73;;
21330;SDS011;10824;51.632;4.950;2023-07-13T02:49:40;7.45;;;1.38;;
21330;SDS011;10824;51.632;4.950;2023-07-13T02:52:08;3.40;;;1.48;;
21330;SDS011;10824;51.632;4.950;2023-07-13T02:54:35;4.82;;;2.00;;
21330;SDS011;10824;51.632;4.950;2023-07-13T02:57:03;6.53;;;1.50;;
21330;SDS011;10824;51.632;4.950;2023-07-13T02:59:30;3.00;;;1.98;;
21330;SDS011;10824;51.632;4.950;2023-07-13T03:01:58;5.03;;;1.27;;
21330;SDS011;10824;51.632;4.950;2023-07-13T03:04:25;5.18;;;1.40;;
21330;SDS011;10824;51.632;4.950;2023-07-13T03:06:52;6.68;;;1.70;;
21330;SDS011;10824;51.632;4.950;2023-07-13T03:09:31;3.97;;;1.42;;
21330;SDS011;10824;51.632;4.950;2023-07-13T03:12:00;3.40;;;1.23;;
21330;SDS011;10824;51.632;4.950;2023-07-13T03:14:31;7.45;;;2.08;;
21330;SDS011;10824;51.632;4.950;2023-07-13T03:17:00;5.05;;;1.33;;
21330;SDS011;10824;51.632;4.950;2023-07-13T03:19:30;5.30;;;1.90;;
21330;SDS011;10824;51.632;4.950;2023-07-13T03:21:57;9.57;;;2.78;;
21330;SDS011;10824;51.632;4.950;2023-07-13T03:24:25;6.82;;;1.75;;
21330;SDS011;10824;51.632;4.950;2023-07-13T03:26:53;5.90;;;2.40;;
21330;SDS011;10824;51.632;4.950;2023-07-13T03:29:21;3.97;;;1.50;;
21330;SDS011;10824;51.632;4.950;2023-07-13T03:31:49;5.60;;;2.30;;
21330;SDS011;10824;51.632;4.950;2023-07-13T03:36:48;4.03;;;2.40;;
21330;SDS011;10824;51.632;4.950;2023-07-13T03:39:15;4.88;;;1.80;;
21330;SDS011;10824;51.632;4.950;2023-07-13T03:41:47;6.18;;;1.58;;
21330;SDS011;10824;51.632;4.950;2023-07-13T03:44:18;5.32;;;1.92;;
21330;SDS011;10824;51.632;4.950;2023-07-13T03:46:50;5.22;;;1.73;;
21330;SDS011;10824;51.632;4.950;2023-07-13T03:49:17;5.90;;;2.58;;
21330;SDS011;10824;51.632;4.950;2023-07-13T03:51:44;5.15;;;2.10;;
21330;SDS011;10824;51.632;4.950;2023-07-13T03:54:11;8.57;;;1.90;;
21330;SDS011;10824;51.632;4.950;2023-07-13T03:56:39;6.35;;;2.28;;
21330;SDS011;10824;51.632;4.950;2023-07-13T03:59:08;5.18;;;2.00;;
21330;SDS011;10824;51.632;4.950;2023-07-13T04:01:35;10.90;;;2.78;;
21330;SDS011;10824;51.632;4.950;2023-07-13T04:04:03;9.60;;;2.53;;
21330;SDS011;10824;51.632;4.950;2023-07-13T04:06:30;5.25;;;2.13;;
21330;SDS011;10824;51.632;4.950;2023-07-13T04:09:00;6.18;;;1.85;;
21330;SDS011;10824;51.632;4.950;2023-07-13T04:11:30;7.60;;;3.53;;
21330;SDS011;10824;51.632;4.950;2023-07-13T04:13:59;11.25;;;2.30;;
21330;SDS011;10824;51.632;4.950;2023-07-13T04:16:26;13.30;;;2.13;;
21330;SDS011;10824;51.632;4.950;2023-07-13T04:18:53;6.88;;;2.33;;
21330;SDS011;10824;51.632;4.950;2023-07-13T04:21:23;11.65;;;2.65;;
21330;SDS011;10824;51.632;4.950;2023-07-13T04:23:50;7.63;;;4.43;;
21330;SDS011;10824;51.632;4.950;2023-07-13T04:26:17;18.48;;;4.10;;
21330;SDS011;10824;51.632;4.950;2023-07-13T04:28:47;3.38;;;1.70;;
21330;SDS011;10824;51.632;4.950;2023-07-13T04:31:15;6.32;;;2.47;;
21330;SDS011;10824;51.632;4.950;2023-07-13T04:33:42;6.18;;;1.90;;
21330;SDS011;10824;51.632;4.950;2023-07-13T04:36:12;8.52;;;2.25;;
21330;SDS011;10824;51.632;4.950;2023-07-13T04:38:39;10.13;;;2.60;;
21330;SDS011;10824;51.632;4.950;2023-07-13T04:41:08;11.75;;;3.75;;
21330;SDS011;10824;51.632;4.950;2023-07-13T04:43:36;6.60;;;2.28;;
21330;SDS011;10824;51.632;4.950;2023-07-13T04:46:05;8.43;;;2.60;;
21330;SDS011;10824;51.632;4.950;2023-07-13T04:48:35;5.82;;;2.63;;
21330;SDS011;10824;51.632;4.950;2023-07-13T04:51:02;8.30;;;2.58;;
21330;SDS011;10824;51.632;4.950;2023-07-13T04:53:30;6.75;;;2.65;;
21330;SDS011;10824;51.632;4.950;2023-07-13T04:55:58;5.93;;;2.47;;
21330;SDS011;10824;51.632;4.950;2023-07-13T04:58:26;10.30;;;2.72;;
21330;SDS011;10824;51.632;4.950;2023-07-13T05:00:59;4.57;;;1.95;;
21330;SDS011;10824;51.632;4.950;2023-07-13T05:03:32;8.90;;;2.30;;
21330;SDS011;10824;51.632;4.950;2023-07-13T05:06:04;5.72;;;2.63;;
21330;SDS011;10824;51.632;4.950;2023-07-13T05:08:33;8.63;;;2.08;;
21330;SDS011;10824;51.632;4.950;2023-07-13T05:11:01;10.45;;;3.45;;
21330;SDS011;10824;51.632;4.950;2023-07-13T05:13:30;13.50;;;3.38;;
21330;SDS011;10824;51.632;4.950;2023-07-13T05:16:00;7.78;;;2.38;;
21330;SDS011;10824;51.632;4.950;2023-07-13T05:18:30;6.72;;;2.65;;
21330;SDS011;10824;51.632;4.950;2023-07-13T05:20:59;6.78;;;2.47;;
21330;SDS011;10824;51.632;4.950;2023-07-13T05:23:26;5.57;;;2.33;;
21330;SDS011;10824;51.632;4.950;2023-07-13T05:25:54;10.70;;;2.30;;
21330;SDS011;10824;51.632;4.950;2023-07-13T05:28:21;6.65;;;2.70;;
21330;SDS011;10824;51.632;4.950;2023-07-13T05:30:49;7.00;;;2.78;;
21330;SDS011;10824;51.632;4.950;2023-07-13T05:33:17;6.13;;;2.20;;
21330;SDS011;10824;51.632;4.950;2023-07-13T05:35:44;6.93;;;2.53;;
21330;SDS011;10824;51.632;4.950;2023-07-13T05:38:11;12.75;;;3.83;;
21330;SDS011;10824;51.632;4.950;2023-07-13T05:40:38;10.18;;;2.92;;
21330;SDS011;10824;51.632;4.950;2023-07-13T05:43:06;11.35;;;3.03;;
21330;SDS011;10824;51.632;4.950;2023-07-13T05:45:33;7.75;;;3.42;;
21330;SDS011;10824;51.632;4.950;2023-07-13T05:48:00;10.13;;;3.08;;
21330;SDS011;10824;51.632;4.950;2023-07-13T05:50:28;11.30;;;3.55;;
21330;SDS011;10824;51.632;4.950;2023-07-13T05:52:55;8.98;;;2.80;;
21330;SDS011;10824;51.632;4.950;2023-07-13T05:55:23;6.93;;;3.30;;
21330;SDS011;10824;51.632;4.950;2023-07-13T05:57:50;13.13;;;3.40;;
21330;SDS011;10824;51.632;4.950;2023-07-13T06:00:17;6.40;;;3.30;;
21330;SDS011;10824;51.632;4.950;2023-07-13T06:02:44;24.95;;;4.65;;
21330;SDS011;10824;51.632;4.950;2023-07-13T06:05:12;12.73;;;3.70;;
21330;SDS011;10824;51.632;4.950;2023-07-13T06:07:39;11.02;;;3.70;;
21330;SDS011;10824;51.632;4.950;2023-07-13T06:10:07;8.25;;;3.53;;
21330;SDS011;10824;51.632;4.950;2023-07-13T06:12:35;9.90;;;4.47;;
21330;SDS011;10824;51.632;4.950;2023-07-13T06:15:02;10.18;;;3.63;;
21330;SDS011;10824;51.632;4.950;2023-07-13T06:17:30;12.27;;;4.07;;
21330;SDS011;10824;51.632;4.950;2023-07-13T06:19:57;9.73;;;3.75;;
21330;SDS011;10824;51.632;4.950;2023-07-13T06:22:25;16.58;;;4.22;;
21330;SDS011;10824;51.632;4.950;2023-07-13T06:24:52;10.23;;;4.30;;
21330;SDS011;10824;51.632;4.950;2023-07-13T06:27:19;9.95;;;3.90;;
21330;SDS011;10824;51.632;4.950;2023-07-13T06:29:46;21.98;;;5.65;;
21330;SDS011;10824;51.632;4.950;2023-07-13T06:32:13;7.50;;;3.42;;
21330;SDS011;10824;51.632;4.950;2023-07-13T06:34:40;17.63;;;3.95;;
21330;SDS011;10824;51.632;4.950;2023-07-13T06:37:08;8.07;;;3.38;;
21330;SDS011;10824;51.632;4.950;2023-07-13T06:39:38;9.60;;;3.53;;
21330;SDS011;10824;51.632;4.950;2023-07-13T06:42:05;20.30;;;5.18;;
21330;SDS011;10824;51.632;4.950;2023-07-13T06:44:33;11.70;;;3.40;;
21330;SDS011;10824;51.632;4.950;2023-07-13T06:47:00;10.85;;;3.33;;
21330;SDS011;10824;51.632;4.950;2023-07-13T06:49:27;7.72;;;3.45;;
21330;SDS011;10824;51.632;4.950;2023-07-13T06:51:55;13.85;;;3.65;;
21330;SDS011;10824;51.632;4.950;2023-07-13T06:54:22;8.40;;;4.03;;
21330;SDS011;10824;51.632;4.950;2023-07-13T06:56:49;5.88;;;2.83;;
21330;SDS011;10824;51.632;4.950;2023-07-13T06:59:16;15.45;;;3.47;;
21330;SDS011;10824;51.632;4.950;2023-07-13T07:01:43;5.90;;;2.97;;
21330;SDS011;10824;51.632;4.950;2023-07-13T07:04:11;8.82;;;2.90;;
21330;SDS011;10824;51.632;4.950;2023-07-13T07:06:39;8.85;;;3.83;;
21330;SDS011;10824;51.632;4.950;2023-07-13T07:09:06;6.53;;;2.88;;
21330;SDS011;10824;51.632;4.950;2023-07-13T07:11:33;4.85;;;2.90;;
21330;SDS011;10824;51.632;4.950;2023-07-13T07:14:00;10.48;;;2.72;;
21330;SDS011;10824;51.632;4.950;2023-07-13T07:16:27;7.63;;;3.10;;
21330;SDS011;10824;51.632;4.950;2023-07-13T07:18:54;6.13;;;2.45;;
21330;SDS011;10824;51.632;4.950;2023-07-13T07:21:21;6.00;;;2.25;;
21330;SDS011;10824;51.632;4.950;2023-07-13T07:23:49;5.18;;;2.63;;
21330;SDS011;10824;51.632;4.950;2023-07-13T07:26:18;8.88;;;3.47;;
21330;SDS011;10824;51.632;4.950;2023-07-13T07:28:50;3.67;;;2.47;;
21330;SDS011;10824;51.632;4.950;2023-07-13T07:31:37;20.45;;;4.05;;
21330;SDS011;10824;51.632;4.950;2023-07-13T07:34:07;6.03;;;2.30;;
21330;SDS011;10824;51.632;4.950;2023-07-13T07:36:34;4.63;;;2.25;;
21330;SDS011;10824;51.632;4.950;2023-07-13T07:39:04;10.25;;;2.85;;
21330;SDS011;10824;51.632;4.950;2023-07-13T07:41:31;5.53;;;2.45;;
21330;SDS011;10824;51.632;4.950;2023-07-13T07:44:01;7.40;;;2.30;;
21330;SDS011;10824;51.632;4.950;2023-07-13T07:46:30;7.72;;;2.83;;
21330;SDS011;10824;51.632;4.950;2023-07-13T07:48:57;5.97;;;1.90;;
21330;SDS011;10824;51.632;4.950;2023-07-13T07:51:25;4.45;;;1.83;;
21330;SDS011;10824;51.632;4.950;2023-07-13T07:53:52;3.90;;;1.70;;
21330;SDS011;10824;51.632;4.950;2023-07-13T07:56:20;5.80;;;2.53;;
21330;SDS011;10824;51.632;4.950;2023-07-13T07:58:50;17.48;;;3.72;;
21330;SDS011;10824;51.632;4.950;2023-07-13T08:01:20;3.08;;;1.50;;
21330;SDS011;10824;51.632;4.950;2023-07-13T08:03:50;2.92;;;1.60;;
21330;SDS011;10824;51.632;4.950;2023-07-13T08:06:20;16.08;;;2.22;;
21330;SDS011;10824;51.632;4.950;2023-07-13T08:08:51;7.03;;;2.38;;
21330;SDS011;10824;51.632;4.950;2023-07-13T08:11:18;3.33;;;1.42;;
21330;SDS011;10824;51.632;4.950;2023-07-13T08:13:49;6.72;;;1.35;;
21330;SDS011;10824;51.632;4.950;2023-07-13T08:16:20;3.30;;;1.47;;
21330;SDS011;10824;51.632;4.950;2023-07-13T08:18:48;4.00;;;2.05;;
21330;SDS011;10824;51.632;4.950;2023-07-13T08:21:16;3.00;;;1.83;;
21330;SDS011;10824;51.632;4.950;2023-07-13T08:23:43;2.90;;;1.30;;
21330;SDS011;10824;51.632;4.950;2023-07-13T08:26:10;7.45;;;2.60;;
21330;SDS011;10824;51.632;4.950;2023-07-13T08:28:37;3.00;;;1.25;;
21330;SDS011;10824;51.632;4.950;2023-07-13T08:31:05;6.95;;;1.30;;
21330;SDS011;10824;51.632;4.950;2023-07-13T08:33:34;6.40;;;1.30;;
21330;SDS011;10824;51.632;4.950;2023-07-13T08:36:02;6.93;;;4.20;;
21330;SDS011;10824;51.632;4.950;2023-07-13T08:38:29;4.40;;;1.35;;
21330;SDS011;10824;51.632;4.950;2023-07-13T08:40:57;2.28;;;1.30;;
21330;SDS011;10824;51.632;4.950;2023-07-13T08:43:28;4.53;;;1.10;;
21330;SDS011;10824;51.632;4.950;2023-07-13T08:46:04;2.70;;;1.17;;
21330;SDS011;10824;51.632;4.950;2023-07-13T08:48:34;2.80;;;1.23;;
21330;SDS011;10824;51.632;4.950;2023-07-13T08:53:41;2.72;;;1.20;;
21330;SDS011;10824;51.632;4.950;2023-07-13T08:56:17;5.65;;;1.08;;
21330;SDS011;10824;51.632;4.950;2023-07-13T08:58:53;4.72;;;1.40;;
21330;SDS011;10824;51.632;4.950;2023-07-13T09:01:33;3.58;;;1.50;;
21330;SDS011;10824;51.632;4.950;2023-07-13T09:04:37;2.13;;;0.90;;
21330;SDS011;10824;51.632;4.950;2023-07-13T09:10:14;1.77;;;0.90;;
21330;SDS011;10824;51.632;4.950;2023-07-13T09:15:43;4.03;;;2.15;;
21330;SDS011;10824;51.632;4.950;2023-07-13T09:23:41;2.67;;;1.10;;
21330;SDS011;10824;51.632;4.950;2023-07-13T09:28:44;3.03;;;0.88;;
21330;SDS011;10824;51.632;4.950;2023-07-13T09:31:15;1.70;;;0.90;;
21330;SDS011;10824;51.632;4.950;2023-07-13T09:33:45;1.38;;;0.63;;
21330;SDS011;10824;51.632;4.950;2023-07-13T09:39:03;2.38;;;0.90;;
21330;SDS011;10824;51.632;4.950;2023-07-13T09:44:31;5.57;;;1.40;;
21330;SDS011;10824;51.632;4.950;2023-07-13T09:47:17;2.42;;;1.20;;
21330;SDS011;10824;51.632;4.950;2023-07-13T09:49:45;4.65;;;1.00;;
21330;SDS011;10824;51.632;4.950;2023-07-13T09:52:14;3.15;;;0.80;;
21330;SDS011;10824;51.632;4.950;2023-07-13T09:54:47;3.10;;;0.90;;
21330;SDS011;10824;51.632;4.950;2023-07-13T09:57:17;7.78;;;0.90;;
21330;SDS011;10824;51.632;4.950;2023-07-13T10:00:00;1.95;;;0.73;;
21330;SDS011;10824;51.632;4.950;2023-07-13T10:02:32;3.20;;;1.10;;
21330;SDS011;10824;51.632;4.950;2023-07-13T10:05:02;0.60;;;0.60;;
21330;SDS011;10824;51.632;4.950;2023-07-13T10:07:38;3.15;;;1.92;;
21330;SDS011;10824;51.632;4.950;2023-07-13T10:10:14;3.00;;;1.00;;
21330;SDS011;10824;51.632;4.950;2023-07-13T10:12:44;5.30;;;0.85;;
21330;SDS011;10824;51.632;4.950;2023-07-13T10:15:15;5.10;;;1.30;;
21330;SDS011;10824;51.632;4.950;2023-07-13T10:17:50;2.28;;;0.70;;
21330;SDS011;10824;51.632;4.950;2023-07-13T10:20:22;2.22;;;1.00;;
21330;SDS011;10824;51.632;4.950;2023-07-13T10:25:30;2.00;;;0.85;;
21330;SDS011;10824;51.632;4.950;2023-07-13T10:28:04;2.75;;;0.80;;
21330;SDS011;10824;51.632;4.950;2023-07-13T10:30:53;6.95;;;1.02;;
21330;SDS011;10824;51.632;4.950;2023-07-13T10:33:23;1.88;;;0.93;;
21330;SDS011;10824;51.632;4.950;2023-07-13T10:35:51;2.20;;;1.05;;
21330;SDS011;10824;51.632;4.950;2023-07-13T10:38:25;1.38;;;0.80;;
21330;SDS011;10824;51.632;4.950;2023-07-13T10:43:43;2.55;;;1.33;;
21330;SDS011;10824;51.632;4.950;2023-07-13T10:46:18;3.83;;;1.17;;
21330;SDS011;10824;51.632;4.950;2023-07-13T10:51:18;1.90;;;0.75;;
21330;SDS011;10824;51.632;4.950;2023-07-13T10:56:45;2.17;;;0.85;;
21330;SDS011;10824;51.632;4.950;2023-07-13T10:59:18;3.30;;;0.73;;
21330;SDS011;10824;51.632;4.950;2023-07-13T11:02:00;1.58;;;0.70;;
21330;SDS011;10824;51.632;4.950;2023-07-13T11:04:48;5.05;;;0.80;;
21330;SDS011;10824;51.632;4.950;2023-07-13T11:09:55;7.35;;;1.45;;
21330;SDS011;10824;51.632;4.950;2023-07-13T11:23:09;0.70;;;0.70;;
21330;SDS011;10824;51.632;4.950;2023-07-13T11:25:45;0.85;;;0.60;;
21330;SDS011;10824;51.632;4.950;2023-07-13T11:28:16;1.50;;;0.60;;
21330;SDS011;10824;51.632;4.950;2023-07-13T11:30:50;0.90;;;0.60;;
21330;SDS011;10824;51.632;4.950;2023-07-13T11:33:49;1.05;;;0.65;;
21330;SDS011;10824;51.632;4.950;2023-07-13T11:36:23;1.77;;;0.60;;
21330;SDS011;10824;51.632;4.950;2023-07-13T11:38:59;1.52;;;0.73;;
21330;SDS011;10824;51.632;4.950;2023-07-13T11:44:18;1.15;;;0.60;;
21330;SDS011;10824;51.632;4.950;2023-07-13T11:46:48;2.38;;;0.50;;
21330;SDS011;10824;51.632;4.950;2023-07-13T11:49:24;1.23;;;0.63;;
21330;SDS011;10824;51.632;4.950;2023-07-13T11:51:58;1.02;;;0.40;;
21330;SDS011;10824;51.632;4.950;2023-07-13T11:54:29;1.88;;;0.73;;
21330;SDS011;10824;51.632;4.950;2023-07-13T11:59:46;1.98;;;0.60;;
21330;SDS011;10824;51.632;4.950;2023-07-13T12:02:16;2.40;;;0.93;;
21330;SDS011;10824;51.632;4.950;2023-07-13T12:04:58;0.85;;;0.65;;
21330;SDS011;10824;51.632;4.950;2023-07-13T12:07:28;1.35;;;0.50;;
21330;SDS011;10824;51.632;4.950;2023-07-13T12:10:40;0.98;;;0.52;;
21330;SDS011;10824;51.632;4.950;2023-07-13T12:12:56;4.15;;;0.82;;
21330;SDS011;10824;51.632;4.950;2023-07-13T12:15:28;1.33;;;0.43;;
21330;SDS011;10824;51.632;4.950;2023-07-13T12:18:13;1.08;;;0.50;;
21330;SDS011;10824;51.632;4.950;2023-07-13T12:20:42;1.38;;;0.95;;
21330;SDS011;10824;51.632;4.950;2023-07-13T12:23:19;2.63;;;0.50;;
21330;SDS011;10824;51.632;4.950;2023-07-13T12:25:51;0.73;;;0.43;;
21330;SDS011;10824;51.632;4.950;2023-07-13T12:28:36;0.70;;;0.63;;
21330;SDS011;10824;51.632;4.950;2023-07-13T12:31:06;1.42;;;0.43;;
21330;SDS011;10824;51.632;4.950;2023-07-13T12:33:45;1.85;;;0.90;;
21330;SDS011;10824;51.632;4.950;2023-07-13T12:36:13;1.90;;;0.70;;
21330;SDS011;10824;51.632;4.950;2023-07-13T12:38:40;2.03;;;1.10;;
21330;SDS011;10824;51.632;4.950;2023-07-13T12:41:08;0.82;;;0.50;;
21330;SDS011;10824;51.632;4.950;2023-07-13T12:43:36;0.40;;;0.40;;
21330;SDS011;10824;51.632;4.950;2023-07-13T12:46:04;2.25;;;0.60;;
21330;SDS011;10824;51.632;4.950;2023-07-13T12:51:38;1.52;;;1.05;;
21330;SDS011;10824;51.632;4.950;2023-07-13T12:54:11;1.20;;;0.50;;
21330;SDS011;10824;51.632;4.950;2023-07-13T12:56:43;4.38;;;0.85;;
21330;SDS011;10824;51.632;4.950;2023-07-13T12:59:16;1.40;;;0.50;;
21330;SDS011;10824;51.632;4.950;2023-07-13T13:01:45;4.13;;;0.60;;
21330;SDS011;10824;51.632;4.950;2023-07-13T13:04:13;2.80;;;0.77;;
21330;SDS011;10824;51.632;4.950;2023-07-13T13:06:41;2.35;;;0.70;;
21330;SDS011;10824;51.632;4.950;2023-07-13T13:09:14;2.33;;;0.68;;
21330;SDS011;10824;51.632;4.950;2023-07-13T13:11:42;1.67;;;0.85;;
21330;SDS011;10824;51.632;4.950;2023-07-13T13:14:09;3.08;;;1.00;;
21330;SDS011;10824;51.632;4.950;2023-07-13T13:16:47;1.48;;;0.60;;
21330;SDS011;10824;51.632;4.950;2023-07-13T13:19:19;4.30;;;1.13;;
21330;SDS011;10824;51.632;4.950;2023-07-13T13:21:53;2.70;;;0.93;;
21330;SDS011;10824;51.632;4.950;2023-07-13T13:24:23;1.50;;;0.77;;
21330;SDS011;10824;51.632;4.950;2023-07-13T13:26:54;2.33;;;0.70;;
21330;SDS011;10824;51.632;4.950;2023-07-13T13:29:24;1.30;;;0.68;;
21330;SDS011;10824;51.632;4.950;2023-07-13T13:31:54;0.85;;;0.50;;
21330;SDS011;10824;51.632;4.950;2023-07-13T13:34:22;3.47;;;0.85;;
21330;SDS011;10824;51.632;4.950;2023-07-13T13:36:51;3.03;;;0.88;;
21330;SDS011;10824;51.632;4.950;2023-07-13T13:39:34;2.20;;;0.70;;
21330;SDS011;10824;51.632;4.950;2023-07-13T13:42:03;1.90;;;0.60;;
21330;SDS011;10824;51.632;4.950;2023-07-13T13:44:32;2.25;;;0.70;;
21330;SDS011;10824;51.632;4.950;2023-07-13T13:47:01;1.30;;;0.65;;
21330;SDS011;10824;51.632;4.950;2023-07-13T13:49:29;3.83;;;1.80;;
21330;SDS011;10824;51.632;4.950;2023-07-13T13:51:57;2.03;;;1.10;;
21330;SDS011;10824;51.632;4.950;2023-07-13T13:54:26;3.58;;;0.82;;
21330;SDS011;10824;51.632;4.950;2023-07-13T13:56:53;2.03;;;0.60;;
21330;SDS011;10824;51.632;4.950;2023-07-13T13:59:22;1.65;;;0.70;;
21330;SDS011;10824;51.632;4.950;2023-07-13T14:01:50;1.95;;;0.70;;
21330;SDS011;10824;51.632;4.950;2023-07-13T14:04:19;2.25;;;0.55;;
21330;SDS011;10824;51.632;4.950;2023-07-13T14:06:47;1.20;;;0.73;;
21330;SDS011;10824;51.632;4.950;2023-07-13T14:09:17;1.55;;;0.60;;
21330;SDS011;10824;51.632;4.950;2023-07-13T14:11:46;1.42;;;0.70;;
21330;SDS011;10824;51.632;4.950;2023-07-13T14:14:23;1.47;;;0.60;;
21330;SDS011;10824;51.632;4.950;2023-07-13T14:16:52;3.17;;;1.45;;
21330;SDS011;10824;51.632;4.950;2023-07-13T14:19:21;1.27;;;0.60;;
21330;SDS011;10824;51.632;4.950;2023-07-13T14:21:49;2.10;;;0.60;;
21330;SDS011;10824;51.632;4.950;2023-07-13T14:24:19;4.10;;;0.90;;
21330;SDS011;10824;51.632;4.950;2023-07-13T14:26:47;2.55;;;0.75;;
21330;SDS011;10824;51.632;4.950;2023-07-13T14:29:16;1.20;;;0.60;;
21330;SDS011;10824;51.632;4.950;2023-07-13T14:31:48;1.77;;;0.73;;
21330;SDS011;10824;51.632;4.950;2023-07-13T14:34:16;4.68;;;0.80;;
21330;SDS011;10824;51.632;4.950;2023-07-13T14:36:45;0.77;;;0.60;;
21330;SDS011;10824;51.632;4.950;2023-07-13T14:41:45;1.98;;;0.60;;
21330;SDS011;10824;51.632;4.950;2023-07-13T14:44:16;2.38;;;0.60;;
21330;SDS011;10824;51.632;4.950;2023-07-13T14:46:47;1.35;;;0.60;;
21330;SDS011;10824;51.632;4.950;2023-07-13T14:52:00;0.68;;;0.55;;
21330;SDS011;10824;51.632;4.950;2023-07-13T14:54:31;1.27;;;0.40;;
21330;SDS011;10824;51.632;4.950;2023-07-13T14:56:58;1.42;;;0.50;;
21330;SDS011;10824;51.632;4.950;2023-07-13T14:59:26;4.30;;;0.50;;
21330;SDS011;10824;51.632;4.950;2023-07-13T15:01:53;2.40;;;0.65;;
21330;SDS011;10824;51.632;4.950;2023-07-13T15:04:21;2.08;;;0.57;;
21330;SDS011;10824;51.632;4.950;2023-07-13T15:06:56;0.43;;;0.40;;
21330;SDS011;10824;51.632;4.950;2023-07-13T15:09:26;3.25;;;0.60;;
21330;SDS011;10824;51.632;4.950;2023-07-13T15:11:55;0.75;;;0.50;;
21330;SDS011;10824;51.632;4.950;2023-07-13T15:14:24;1.30;;;0.45;;
21330;SDS011;10824;51.632;4.950;2023-07-13T15:16:53;2.75;;;0.70;;
21330;SDS011;10824;51.632;4.950;2023-07-13T15:19:22;0.73;;;0.40;;
21330;SDS011;10824;51.632;4.950;2023-07-13T15:21:50;5.38;;;1.65;;
21330;SDS011;10824;51.632;4.950;2023-07-13T15:24:21;2.20;;;0.47;;
21330;SDS011;10824;51.632;4.950;2023-07-13T15:26:48;1.05;;;0.45;;
21330;SDS011;10824;51.632;4.950;2023-07-13T15:29:16;2.03;;;0.68;;
21330;SDS011;10824;51.632;4.950;2023-07-13T15:31:44;1.77;;;0.50;;
21330;SDS011;10824;51.632;4.950;2023-07-13T15:34:13;1.58;;;0.50;;
21330;SDS011;10824;51.632;4.950;2023-07-13T15:36:43;0.65;;;0.40;;
21330;SDS011;10824;51.632;4.950;2023-07-13T15:39:14;1.42;;;0.60;;
21330;SDS011;10824;51.632;4.950;2023-07-13T15:41:45;1.63;;;0.57;;
21330;SDS011;10824;51.632;4.950;2023-07-13T15:46:55;0.80;;;0.50;;
21330;SDS011;10824;51.632;4.950;2023-07-13T15:49:23;2.08;;;0.65;;
21330;SDS011;10824;51.632;4.950;2023-07-13T15:51:50;0.47;;;0.30;;
21330;SDS011;10824;51.632;4.950;2023-07-13T15:54:18;3.85;;;0.70;;
21330;SDS011;10824;51.632;4.950;2023-07-13T15:57:20;1.52;;;0.60;;
21330;SDS011;10824;51.632;4.950;2023-07-13T15:59:48;2.72;;;0.45;;
21330;SDS011;10824;51.632;4.950;2023-07-13T16:02:18;1.27;;;0.63;;
21330;SDS011;10824;51.632;4.950;2023-07-13T16:04:48;1.77;;;0.95;;
21330;SDS011;10824;51.632;4.950;2023-07-13T16:07:17;1.15;;;0.60;;
21330;SDS011;10824;51.632;4.950;2023-07-13T16:09:45;3.70;;;0.52;;
21330;SDS011;10824;51.632;4.950;2023-07-13T16:12:13;1.40;;;0.50;;
21330;SDS011;10824;51.632;4.950;2023-07-13T16:14:41;1.80;;;0.63;;
21330;SDS011;10824;51.632;4.950;2023-07-13T16:17:13;1.70;;;0.68;;